createdAt,value
2022-10-02T00:02:16.960Z,96.18
2022-10-02T00:04:59.286Z,96.17
2022-10-02T00:07:43.180Z,95.97
2022-10-02T00:10:19.690Z,96.10
2022-10-02T00:12:50.198Z,95.83
2022-10-02T00:15:22.256Z,95.41
2022-10-02T00:17:52.878Z,95.78
2022-10-02T00:20:26.624Z,95.57
2022-10-02T00:22:55.776Z,95.46
2022-10-02T00:25:43.276Z,95.48
2022-10-02T00:28:28.925Z,95.59
2022-10-02T00:31:28.593Z,95.40
2022-10-02T00:34:14.332Z,95.49
2022-10-02T00:37:03.665Z,95.40
2022-10-02T00:39:51.381Z,95.17
2022-10-02T00:42:29.930Z,94.90
2022-10-02T00:45:15.151Z,94.84
2022-10-02T00:47:47.688Z,94.50
2022-10-02T00:50:33.767Z,94.78
2022-10-02T00:53:45.331Z,94.77
2022-10-02T00:56:24.264Z,94.56
2022-10-02T00:59:08.668Z,94.60
2022-10-02T01:02:04.109Z,95.08
2022-10-02T01:04:34.201Z,95.36
2022-10-02T01:07:02.254Z,95.21
2022-10-02T01:09:29.158Z,95.44
2022-10-02T01:11:56.006Z,95.51
2022-10-02T01:14:32.704Z,95.46
2022-10-02T01:16:59.408Z,95.15
2022-10-02T01:19:35.919Z,95.37
2022-10-02T01:22:15.856Z,95.54
2022-10-02T01:24:55.756Z,95.51
2022-10-02T01:27:23.653Z,95.33
2022-10-02T01:30:04.126Z,95.55
2022-10-02T01:32:31.973Z,95.53
2022-10-02T01:35:00.792Z,95.90
2022-10-02T01:37:32.759Z,96.19
2022-10-02T01:40:04.948Z,96.13
2022-10-02T01:42:32.085Z,96.30
2022-10-02T01:44:58.833Z,96.37
2022-10-02T01:47:39.533Z,96.54
2022-10-02T01:50:17.142Z,96.63
2022-10-02T01:52:55.319Z,96.78
2022-10-02T01:55:37.320Z,96.95
2022-10-02T01:58:03.713Z,96.90
2022-10-02T02:00:48.738Z,97.05
2022-10-02T02:03:35.454Z,97.08
2022-10-02T02:06:12.346Z,96.92
2022-10-02T02:08:41.872Z,97.14
2022-10-02T02:11:15.949Z,97.32
2022-10-02T02:13:47.689Z,97.53
2022-10-02T02:16:29.429Z,97.89
2022-10-02T02:19:38.012Z,97.71
2022-10-02T02:22:21.524Z,98.03
2022-10-02T02:24:56.350Z,98.14
2022-10-02T02:27:27.906Z,98.35
2022-10-02T02:30:01.591Z,98.35
2022-10-02T02:32:33.983Z,98.42
2022-10-02T02:35:12.324Z,98.37
2022-10-02T02:37:42.604Z,98.44
2022-10-02T02:40:15.312Z,98.63
2022-10-02T02:42:47.835Z,98.82
2022-10-02T02:45:24.125Z,99.03
2022-10-02T02:47:57.494Z,99.21
2022-10-02T02:50:26.738Z,99.29
2022-10-02T02:53:05.857Z,99.39
2022-10-02T02:55:42.772Z,99.38
2022-10-02T02:58:19.319Z,99.55
2022-10-02T03:00:46.030Z,99.64
2022-10-02T03:03:13.295Z,99.73
2022-10-02T03:05:47.982Z,99.68
2022-10-02T03:08:26.943Z,99.77
2022-10-02T03:11:14.683Z,99.76
2022-10-02T03:14:11.851Z,99.97
2022-10-02T03:16:42.513Z,99.89
2022-10-02T03:19:30.545Z,99.87
2022-10-02T03:22:20.455Z,99.88
2022-10-02T03:24:49.736Z,99.83
2022-10-02T03:27:27.710Z,99.59
2022-10-02T03:30:04.282Z,99.65
2022-10-02T03:32:33.091Z,99.55
2022-10-02T03:35:00.735Z,99.64
2022-10-02T03:37:28.426Z,99.78
2022-10-02T03:40:00.231Z,99.55
2022-10-02T03:42:30.643Z,99.96
2022-10-02T03:44:57.099Z,100.00
2022-10-02T03:47:23.655Z,100.00
2022-10-02T03:49:50.288Z,100.00
2022-10-02T03:52:19.809Z,100.00
2022-10-02T03:54:46.704Z,100.00
2022-10-02T03:57:22.076Z,100.00
2022-10-02T04:00:05.671Z,100.00
2022-10-02T04:02:58.033Z,100.00
2022-10-02T04:05:39.121Z,100.00
2022-10-02T04:08:16.648Z,100.00
2022-10-02T04:11:11.122Z,100.00
2022-10-02T04:13:49.769Z,100.00
2022-10-02T04:16:38.094Z,100.00
2022-10-02T04:19:18.704Z,100.00
2022-10-02T04:21:48.930Z,100.00
2022-10-02T04:24:15.271Z,100.00
2022-10-02T04:26:47.515Z,100.00
2022-10-02T04:29:28.377Z,100.00
2022-10-02T04:32:07.766Z,100.00
2022-10-02T04:34:34.181Z,100.00
2022-10-02T04:37:11.245Z,100.00
2022-10-02T04:40:16.776Z,100.00
2022-10-02T04:42:49.141Z,100.00
2022-10-02T04:45:31.836Z,100.00
2022-10-02T04:48:12.318Z,100.00
2022-10-02T04:50:38.631Z,100.00
2022-10-02T04:53:35.693Z,100.00
2022-10-02T04:56:19.985Z,100.00
2022-10-02T04:58:52.488Z,100.00
2022-10-02T05:01:28.780Z,100.00
2022-10-02T05:04:19.612Z,100.00
2022-10-02T05:07:03.557Z,100.00
2022-10-02T05:09:37.485Z,100.00
2022-10-02T05:12:09.788Z,100.00
2022-10-02T05:15:12.757Z,100.00
2022-10-02T05:17:39.092Z,100.00
2022-10-02T05:20:21.855Z,100.00
2022-10-02T05:23:12.681Z,100.00
2022-10-02T05:26:09.605Z,100.00
2022-10-02T05:29:02.952Z,100.00
2022-10-02T05:31:58.830Z,100.00
2022-10-02T05:34:43.700Z,100.00
2022-10-02T05:37:31.598Z,100.00
2022-10-02T05:40:10.537Z,100.00
2022-10-02T05:42:43.390Z,100.00
2022-10-02T05:45:26.417Z,100.00
2022-10-02T05:48:02.660Z,100.00
2022-10-02T05:50:34.346Z,100.00
2022-10-02T05:53:10.747Z,100.00
2022-10-02T05:55:45.799Z,100.00
2022-10-02T05:58:30.405Z,100.00
2022-10-02T06:01:17.919Z,100.00
2022-10-02T06:03:55.895Z,100.00
2022-10-02T06:06:39.152Z,100.00
2022-10-02T06:09:20.135Z,100.00
2022-10-02T06:12:19.148Z,100.00
2022-10-02T06:14:52.877Z,100.00
2022-10-02T06:17:27.426Z,100.00
2022-10-02T06:20:14.307Z,100.00
2022-10-02T06:22:48.139Z,100.00
2022-10-02T06:25:25.696Z,100.00
2022-10-02T06:28:06.188Z,100.00
2022-10-02T06:30:37.327Z,100.00
2022-10-02T06:33:15.651Z,100.00
2022-10-02T06:36:20.245Z,100.00
2022-10-02T06:38:58.457Z,100.00
2022-10-02T06:41:38.457Z,100.00
2022-10-02T06:44:27.639Z,100.00
2022-10-02T06:47:47.638Z,100.00
2022-10-02T06:50:33.312Z,100.00
2022-10-02T06:53:05.747Z,100.00
2022-10-02T06:55:32.143Z,100.00
2022-10-02T06:58:04.281Z,100.00
2022-10-02T07:00:37.354Z,100.00
2022-10-02T07:03:42.153Z,100.00
2022-10-02T07:06:21.894Z,100.00
2022-10-02T07:09:03.317Z,100.00
2022-10-02T07:11:43.091Z,100.00
2022-10-02T07:14:27.988Z,99.90
2022-10-02T07:17:21.538Z,99.79
2022-10-02T07:20:16.349Z,99.60
2022-10-02T07:23:13.550Z,99.56
2022-10-02T07:25:45.847Z,99.39
2022-10-02T07:28:15.502Z,99.00
2022-10-02T07:31:06.168Z,98.90
2022-10-02T07:33:50.596Z,98.70
2022-10-02T07:36:30.286Z,98.61
2022-10-02T07:39:01.912Z,98.60
2022-10-02T07:41:56.431Z,98.47
2022-10-02T07:44:46.204Z,98.31
2022-10-02T07:47:34.857Z,98.36
2022-10-02T07:50:33.083Z,98.22
2022-10-02T07:53:15.245Z,98.24
2022-10-02T07:55:43.568Z,97.92
2022-10-02T07:58:37.023Z,97.87
2022-10-02T08:01:09.435Z,97.70
2022-10-02T08:03:43.384Z,97.18
2022-10-02T08:06:10.370Z,96.84
2022-10-02T08:08:39.267Z,96.32
2022-10-02T08:11:31.389Z,96.00
2022-10-02T08:14:28.793Z,95.48
2022-10-02T08:17:01.656Z,95.48
2022-10-02T08:19:39.462Z,95.12
2022-10-02T08:22:33.794Z,94.88
2022-10-02T08:25:08.031Z,94.14
2022-10-02T08:28:04.680Z,94.48
2022-10-02T08:30:31.214Z,94.28
2022-10-02T08:32:58.657Z,93.83
2022-10-02T08:35:43.297Z,93.65
2022-10-02T08:38:15.751Z,93.48
2022-10-02T08:41:09.564Z,92.96
2022-10-02T08:44:43.924Z,93.15
2022-10-02T08:47:43.907Z,92.73
2022-10-02T08:50:20.204Z,92.15
2022-10-02T08:53:25.906Z,91.75
2022-10-02T08:56:26.347Z,91.67
2022-10-02T08:59:23.879Z,91.34
2022-10-02T09:02:11.962Z,91.25
2022-10-02T09:05:17.144Z,91.25
2022-10-02T09:08:08.952Z,89.63
2022-10-02T09:10:53.584Z,90.45
2022-10-02T09:13:54.190Z,89.72
2022-10-02T09:16:33.318Z,89.03
2022-10-02T09:19:21.321Z,89.39
2022-10-02T09:21:56.096Z,87.60
2022-10-02T09:24:52.657Z,87.28
2022-10-02T09:27:37.269Z,86.70
2022-10-02T09:30:13.540Z,87.20
2022-10-02T09:33:07.762Z,86.83
2022-10-02T09:35:54.635Z,87.47
2022-10-02T09:38:44.762Z,87.62
2022-10-02T09:41:34.208Z,87.42
2022-10-02T09:44:19.639Z,87.31
2022-10-02T09:46:52.834Z,86.78
2022-10-02T09:49:57.506Z,86.48
2022-10-02T09:52:29.969Z,86.13
2022-10-02T09:55:14.719Z,85.09
2022-10-02T09:57:41.164Z,84.11
2022-10-02T10:00:31.848Z,83.14
2022-10-02T10:03:16.570Z,82.58
2022-10-02T10:05:45.958Z,82.52
2022-10-02T10:08:38.656Z,80.57
2022-10-02T10:11:16.212Z,80.04
2022-10-02T10:14:07.079Z,79.29
2022-10-02T10:16:51.803Z,79.92
2022-10-02T10:19:33.180Z,79.08
2022-10-02T10:22:23.969Z,78.01
2022-10-02T10:25:10.622Z,76.22
2022-10-02T10:27:40.200Z,76.16
2022-10-02T10:30:15.959Z,75.85
2022-10-02T10:33:16.838Z,75.84
2022-10-02T10:35:56.535Z,75.60
2022-10-02T10:39:03.641Z,75.47
2022-10-02T10:42:08.872Z,73.90
2022-10-02T10:45:03.876Z,74.12
2022-10-02T10:48:08.288Z,74.70
2022-10-02T10:50:53.904Z,74.85
2022-10-02T10:53:46.118Z,74.43
2022-10-02T10:56:26.012Z,75.50
2022-10-02T10:59:25.294Z,76.43
2022-10-02T11:02:16.668Z,76.37
2022-10-02T11:05:08.578Z,76.72
2022-10-02T11:07:40.676Z,76.20
2022-10-02T11:10:16.033Z,75.96
2022-10-02T11:13:03.055Z,75.71
2022-10-02T11:15:48.067Z,76.10
2022-10-02T11:18:20.261Z,76.05
2022-10-02T11:21:15.492Z,75.59
2022-10-02T11:23:47.648Z,76.10
2022-10-02T11:26:17.738Z,75.83
2022-10-02T11:28:54.163Z,74.68
2022-10-02T11:31:50.663Z,74.51
2022-10-02T11:34:43.811Z,72.26
2022-10-02T11:37:23.238Z,71.53
2022-10-02T11:40:08.081Z,71.28
2022-10-02T11:42:57.306Z,70.74
2022-10-02T11:46:00.118Z,70.82
2022-10-02T11:48:35.769Z,70.91
2022-10-02T11:51:36.754Z,72.01
2022-10-02T11:54:21.747Z,72.08
2022-10-02T11:57:09.378Z,70.04
2022-10-02T11:59:54.108Z,69.64
2022-10-02T12:02:38.840Z,70.66
2022-10-02T12:05:30.393Z,69.92
2022-10-02T12:08:46.734Z,70.86
2022-10-02T12:11:53.857Z,69.97
2022-10-02T12:14:39.015Z,69.14
2022-10-02T12:17:28.282Z,66.04
2022-10-02T12:20:32.094Z,66.32
2022-10-02T12:23:35.768Z,65.71
2022-10-02T12:26:59.932Z,66.30
2022-10-02T12:29:50.921Z,65.79
2022-10-02T12:32:54.975Z,64.30
2022-10-02T12:35:27.663Z,65.69
2022-10-02T12:38:05.300Z,66.11
2022-10-02T12:40:46.740Z,65.55
2022-10-02T12:44:02.216Z,66.07
2022-10-02T12:46:49.955Z,63.79
2022-10-02T12:49:50.693Z,64.46
2022-10-02T12:52:44.790Z,64.37
2022-10-02T12:55:48.884Z,63.37
2022-10-02T12:58:42.536Z,63.59
2022-10-02T13:01:31.484Z,63.02
2022-10-02T13:04:16.483Z,62.91
2022-10-02T13:06:48.718Z,61.72
2022-10-02T13:09:18.043Z,60.67
2022-10-02T13:12:06.197Z,61.03
2022-10-02T13:14:45.629Z,59.81
2022-10-02T13:17:19.856Z,59.58
2022-10-02T13:20:01.034Z,59.51
2022-10-02T13:22:52.856Z,61.07
2022-10-02T13:25:38.065Z,61.75
2022-10-02T13:28:13.668Z,61.85
2022-10-02T13:31:15.847Z,62.34
2022-10-02T13:34:26.758Z,62.52
2022-10-02T13:37:15.629Z,62.20
2022-10-02T13:39:53.266Z,63.34
2022-10-02T13:42:38.295Z,63.23
2022-10-02T13:45:07.600Z,65.19
2022-10-02T13:47:44.099Z,65.13
2022-10-02T13:50:17.820Z,65.58
2022-10-02T13:52:56.604Z,65.56
2022-10-02T13:55:26.656Z,65.79
2022-10-02T13:58:06.058Z,65.61
2022-10-02T14:00:38.473Z,66.13
2022-10-02T14:03:25.998Z,63.99
2022-10-02T14:06:02.085Z,64.88
2022-10-02T14:08:31.616Z,60.95
2022-10-02T14:11:23.818Z,58.85
2022-10-02T14:14:11.587Z,60.24
2022-10-02T14:16:44.503Z,59.30
2022-10-02T14:19:52.669Z,60.55
2022-10-02T14:22:34.048Z,59.40
2022-10-02T14:25:22.793Z,59.08
2022-10-02T14:27:58.436Z,60.02
2022-10-02T14:30:46.048Z,61.19
2022-10-02T14:33:27.696Z,60.67
2022-10-02T14:36:08.910Z,59.41
2022-10-02T14:38:51.171Z,59.33
2022-10-02T14:41:20.668Z,59.88
2022-10-02T14:44:18.053Z,61.18
2022-10-02T14:47:21.784Z,60.61
2022-10-02T14:49:54.727Z,59.17
2022-10-02T14:52:30.294Z,61.49
2022-10-02T14:55:15.722Z,60.30
2022-10-02T14:57:51.120Z,60.85
2022-10-02T15:00:25.489Z,62.41
2022-10-02T15:02:51.957Z,62.20
2022-10-02T15:05:45.313Z,63.04
2022-10-02T15:08:21.238Z,63.73
2022-10-02T15:10:49.213Z,63.78
2022-10-02T15:13:34.575Z,64.25
2022-10-02T15:16:52.901Z,64.42
2022-10-02T15:19:25.561Z,63.79
2022-10-02T15:22:01.962Z,64.08
2022-10-02T15:24:44.464Z,63.28
2022-10-02T15:27:23.081Z,63.77
2022-10-02T15:29:58.657Z,63.67
2022-10-02T15:32:46.341Z,63.23
2022-10-02T15:35:27.463Z,62.52
2022-10-02T15:38:31.749Z,62.39
2022-10-02T15:41:19.547Z,63.22
2022-10-02T15:43:48.890Z,63.55
2022-10-02T15:46:43.189Z,63.03
2022-10-02T15:49:39.627Z,63.63
2022-10-02T15:52:36.600Z,63.86
2022-10-02T15:55:19.773Z,64.29
2022-10-02T15:58:16.328Z,62.99
2022-10-02T16:01:01.122Z,63.03
2022-10-02T16:03:50.809Z,63.50
2022-10-02T16:06:35.661Z,63.71
2022-10-02T16:09:28.503Z,64.44
2022-10-02T16:12:31.514Z,64.18
2022-10-02T16:15:18.154Z,64.80
2022-10-02T16:17:56.803Z,65.15
2022-10-02T16:20:38.289Z,65.66
2022-10-02T16:23:46.421Z,66.05
2022-10-02T16:26:50.561Z,66.52
2022-10-02T16:29:29.104Z,66.75
2022-10-02T16:32:19.580Z,66.79
2022-10-02T16:35:16.592Z,67.15
2022-10-02T16:38:00.073Z,68.21
2022-10-02T16:40:56.837Z,68.41
2022-10-02T16:43:48.544Z,68.01
2022-10-02T16:47:07.609Z,68.33
2022-10-02T16:50:02.152Z,68.71
2022-10-02T16:52:34.728Z,68.39
2022-10-02T16:55:23.510Z,68.90
2022-10-02T16:58:05.096Z,69.22
2022-10-02T17:00:38.010Z,69.50
2022-10-02T17:03:28.979Z,70.32
2022-10-02T17:06:04.082Z,70.36
2022-10-02T17:08:44.155Z,71.22
2022-10-02T17:11:16.685Z,70.93
2022-10-02T17:13:49.792Z,71.60
2022-10-02T17:16:37.521Z,71.60
2022-10-02T17:19:19.065Z,71.97
2022-10-02T17:21:53.667Z,73.10
2022-10-02T17:24:23.083Z,73.32
2022-10-02T17:27:13.451Z,73.34
2022-10-02T17:30:05.158Z,72.96
2022-10-02T17:32:34.506Z,73.09
2022-10-02T17:35:01.160Z,73.14
2022-10-02T17:37:56.966Z,73.48
2022-10-02T17:40:46.334Z,73.67
2022-10-02T17:43:18.333Z,74.18
2022-10-02T17:45:52.256Z,74.52
2022-10-02T17:48:30.642Z,74.57
2022-10-02T17:51:38.546Z,74.32
2022-10-02T17:54:23.634Z,74.35
2022-10-02T17:57:33.713Z,74.63
2022-10-02T18:00:12.143Z,74.89
2022-10-02T18:02:44.883Z,75.39
2022-10-02T18:05:38.246Z,75.51
2022-10-02T18:08:10.573Z,75.85
2022-10-02T18:10:58.462Z,75.85
2022-10-02T18:14:01.929Z,76.05
2022-10-02T18:16:33.282Z,76.63
2022-10-02T18:19:21.925Z,76.66
2022-10-02T18:22:23.571Z,76.75
2022-10-02T18:25:29.724Z,77.21
2022-10-02T18:28:19.317Z,77.62
2022-10-02T18:30:54.615Z,78.00
2022-10-02T18:33:51.147Z,78.01
2022-10-02T18:36:37.192Z,78.18
2022-10-02T18:39:19.209Z,78.23
2022-10-02T18:41:48.589Z,78.51
2022-10-02T18:44:29.468Z,78.88
2022-10-02T18:47:04.337Z,78.91
2022-10-02T18:49:52.360Z,78.95
2022-10-02T18:52:38.464Z,79.28
2022-10-02T18:55:17.163Z,79.46
2022-10-02T18:57:55.985Z,79.80
2022-10-02T19:00:26.032Z,79.93
2022-10-02T19:02:55.468Z,80.18
2022-10-02T19:05:28.068Z,80.29
2022-10-02T19:08:03.583Z,80.68
2022-10-02T19:10:33.002Z,80.89
2022-10-02T19:13:17.571Z,81.02
2022-10-02T19:15:46.827Z,81.16
2022-10-02T19:18:29.780Z,81.39
2022-10-02T19:21:12.246Z,81.65
2022-10-02T19:23:47.534Z,81.64
2022-10-02T19:26:21.438Z,81.89
2022-10-02T19:28:52.234Z,82.00
2022-10-02T19:31:21.970Z,82.29
2022-10-02T19:34:03.366Z,82.27
2022-10-02T19:36:38.240Z,82.31
2022-10-02T19:39:10.284Z,82.50
2022-10-02T19:41:42.862Z,82.53
2022-10-02T19:44:22.739Z,82.51
2022-10-02T19:46:52.902Z,82.96
2022-10-02T19:49:34.144Z,82.87
2022-10-02T19:52:00.746Z,82.94
2022-10-02T19:54:35.586Z,83.11
2022-10-02T19:57:12.351Z,83.40
2022-10-02T19:59:44.293Z,83.65
2022-10-02T20:02:21.778Z,84.08
2022-10-02T20:04:50.920Z,84.24
2022-10-02T20:07:20.807Z,84.20
2022-10-02T20:09:55.994Z,83.90
2022-10-02T20:12:29.390Z,83.98
2022-10-02T20:15:15.585Z,84.19
2022-10-02T20:17:42.441Z,84.42
2022-10-02T20:20:16.653Z,84.48
2022-10-02T20:22:55.056Z,84.26
2022-10-02T20:25:28.996Z,84.45
2022-10-02T20:28:06.253Z,84.38
2022-10-02T20:30:41.631Z,84.31
2022-10-02T20:33:31.728Z,84.27
2022-10-02T20:36:06.763Z,84.41
2022-10-02T20:38:44.448Z,84.69
2022-10-02T20:41:21.572Z,84.53
2022-10-02T20:43:51.292Z,84.46
2022-10-02T20:46:47.324Z,84.64
2022-10-02T20:49:33.946Z,84.57
2022-10-02T20:52:22.109Z,84.59
2022-10-02T20:54:58.098Z,85.10
2022-10-02T20:58:02.196Z,84.97
2022-10-02T21:00:43.026Z,84.93
2022-10-02T21:03:30.959Z,84.83
2022-10-02T21:06:24.351Z,85.06
2022-10-02T21:09:02.608Z,84.95
2022-10-02T21:11:35.694Z,85.25
2022-10-02T21:14:34.023Z,85.15
2022-10-02T21:17:18.606Z,85.18
2022-10-02T21:20:03.038Z,85.42
2022-10-02T21:22:59.029Z,85.56
2022-10-02T21:25:32.206Z,85.78
2022-10-02T21:28:17.737Z,85.93
2022-10-02T21:31:18.804Z,86.08
2022-10-02T21:34:03.575Z,86.09
2022-10-02T21:36:45.310Z,86.15
2022-10-02T21:39:30.437Z,86.17
2022-10-02T21:42:35.513Z,85.84
2022-10-02T21:45:23.859Z,86.30
2022-10-02T21:48:09.027Z,86.46
2022-10-02T21:51:01.743Z,86.80
2022-10-02T21:53:58.676Z,87.05
2022-10-02T21:56:57.401Z,86.79
2022-10-02T21:59:58.417Z,86.70
2022-10-02T22:02:37.200Z,86.46
2022-10-02T22:05:29.402Z,86.55
2022-10-02T22:08:08.121Z,86.72
2022-10-02T22:10:47.628Z,86.98
2022-10-02T22:13:24.025Z,87.16
2022-10-02T22:16:04.157Z,87.03
2022-10-02T22:18:44.364Z,87.08
2022-10-02T22:21:48.790Z,87.00
2022-10-02T22:24:18.171Z,87.09
2022-10-02T22:26:44.652Z,87.19
2022-10-02T22:29:27.776Z,87.04
2022-10-02T22:32:34.857Z,87.14
2022-10-02T22:35:21.098Z,87.22
2022-10-02T22:38:35.701Z,87.40
2022-10-02T22:41:14.651Z,87.12
2022-10-02T22:44:13.545Z,86.91
2022-10-02T22:46:48.961Z,86.82
2022-10-02T22:49:34.098Z,86.94
2022-10-02T22:52:07.802Z,86.99
2022-10-02T22:54:40.214Z,87.00
2022-10-02T22:57:33.260Z,87.13
2022-10-02T23:00:15.535Z,87.43
2022-10-02T23:03:01.864Z,87.71
2022-10-02T23:05:35.093Z,87.45
2022-10-02T23:08:30.860Z,87.54
2022-10-02T23:11:07.043Z,87.72
2022-10-02T23:13:40.651Z,88.11
2022-10-02T23:16:16.729Z,88.09
2022-10-02T23:18:52.069Z,87.80
2022-10-02T23:21:25.128Z,87.91
2022-10-02T23:24:02.489Z,87.97
2022-10-02T23:26:34.723Z,87.97
2022-10-02T23:29:30.586Z,88.38
2022-10-02T23:32:42.100Z,88.18
2022-10-02T23:35:28.201Z,88.76
2022-10-02T23:38:27.060Z,88.62
2022-10-02T23:41:22.806Z,88.57
2022-10-02T23:43:51.853Z,89.01
2022-10-02T23:46:25.940Z,88.81
2022-10-02T23:48:54.544Z,88.88
2022-10-02T23:51:37.280Z,88.86
2022-10-02T23:54:57.668Z,88.85
2022-10-02T23:57:29.786Z,89.34
